createdAt,value
2022-10-09T00:00:12.397Z,74.36
2022-10-09T00:01:12.391Z,74.51
2022-10-09T00:02:12.436Z,74.27
2022-10-09T00:03:12.405Z,74.6
2022-10-09T00:04:12.397Z,74.75
2022-10-09T00:05:12.435Z,74.69
2022-10-09T00:06:12.397Z,74.29
2022-10-09T00:07:12.397Z,74.33
2022-10-09T00:08:12.412Z,74.26
2022-10-09T00:09:12.403Z,74.34
2022-10-09T00:10:12.391Z,74.62
2022-10-09T00:11:12.400Z,74.69
2022-10-09T00:12:12.396Z,74.47
2022-10-09T00:13:12.407Z,74.52
2022-10-09T00:14:12.391Z,74.4
2022-10-09T00:15:12.393Z,59.91
2022-10-09T00:16:12.402Z,74.42
2022-10-09T00:17:12.391Z,74.44
2022-10-09T00:18:12.402Z,74.41
2022-10-09T00:19:12.391Z,74.19
2022-10-09T00:20:12.405Z,73.9
2022-10-09T00:21:12.405Z,73.63
2022-10-09T00:22:12.388Z,73.6
2022-10-09T00:23:12.397Z,73.82
2022-10-09T00:24:12.409Z,73.76
2022-10-09T00:25:12.402Z,73.75
2022-10-09T00:26:12.400Z,66.78
2022-10-09T00:27:12.395Z,73.9
2022-10-09T00:28:12.439Z,73.66
2022-10-09T00:29:12.400Z,73.93
2022-10-09T00:30:12.413Z,74.12
2022-10-09T00:31:12.441Z,59.57
2022-10-09T00:32:12.399Z,74.22
2022-10-09T00:33:12.403Z,74.54
2022-10-09T00:34:12.397Z,60.06
2022-10-09T00:35:12.396Z,74.8
2022-10-09T00:36:12.399Z,74.61
2022-10-09T00:37:12.400Z,74.88
2022-10-09T00:38:12.404Z,74.69
2022-10-09T00:39:12.403Z,74.8
2022-10-09T00:40:12.395Z,75.15
2022-10-09T00:41:12.398Z,75.52
2022-10-09T00:42:12.396Z,75.83
2022-10-09T00:43:12.399Z,75.5
2022-10-09T00:44:12.405Z,75.97
2022-10-09T00:45:12.400Z,76.47
2022-10-09T00:46:12.420Z,76.63
2022-10-09T00:47:12.395Z,76.66
2022-10-09T00:48:12.402Z,76.54
2022-10-09T00:49:12.394Z,76.38
2022-10-09T00:50:12.403Z,76.92
2022-10-09T00:51:12.396Z,77.26
2022-10-09T00:52:12.395Z,77.22
2022-10-09T00:53:12.403Z,77.04
2022-10-09T00:54:12.435Z,77.04
2022-10-09T00:55:12.393Z,76.69
2022-10-09T00:56:12.403Z,76.8
2022-10-09T00:57:12.381Z,76.61
2022-10-09T00:58:12.394Z,76.12
2022-10-09T00:59:12.388Z,76.01
2022-10-09T01:00:12.397Z,75.76
2022-10-09T01:01:12.441Z,75.76
2022-10-09T01:02:12.472Z,75.51
2022-10-09T01:03:12.390Z,75.42
2022-10-09T01:04:12.382Z,75.58
2022-10-09T01:05:12.397Z,75.87
2022-10-09T01:06:12.385Z,75.58
2022-10-09T01:07:12.393Z,75.8
2022-10-09T01:08:12.387Z,76.16
2022-10-09T01:09:12.400Z,76.16
2022-10-09T01:10:12.393Z,76.16
2022-10-09T01:11:12.427Z,76.34
2022-10-09T01:12:12.381Z,76.21
2022-10-09T01:13:12.395Z,75.8
2022-10-09T01:14:12.392Z,75.71
2022-10-09T01:15:12.396Z,75.54
2022-10-09T01:16:12.454Z,75.24
2022-10-09T01:17:12.394Z,75.29
2022-10-09T01:18:12.407Z,75.32
2022-10-09T01:19:12.391Z,75.27
2022-10-09T01:20:12.389Z,75.15
2022-10-09T01:21:12.389Z,75.32
2022-10-09T01:22:12.394Z,75.59
2022-10-09T01:23:12.398Z,75.71
2022-10-09T01:24:12.406Z,75.72
2022-10-09T01:25:12.394Z,75.94
2022-10-09T01:26:12.395Z,76.15
2022-10-09T01:27:12.400Z,76.15
2022-10-09T01:28:12.495Z,75.75
2022-10-09T01:29:12.394Z,75.76
2022-10-09T01:30:12.397Z,75.77
2022-10-09T01:31:12.498Z,76.42
2022-10-09T01:32:12.396Z,76.07
2022-10-09T01:33:12.405Z,76.12
2022-10-09T01:34:12.387Z,76.12
2022-10-09T01:35:12.388Z,76.32
2022-10-09T01:36:12.396Z,76.27
2022-10-09T01:37:12.391Z,76.68
2022-10-09T01:38:12.395Z,76.68
2022-10-09T01:39:12.426Z,81.46
2022-10-09T01:40:12.399Z,76.05
2022-10-09T01:41:12.398Z,75.66
2022-10-09T01:42:12.391Z,75.21
2022-10-09T01:43:12.394Z,74.92
2022-10-09T01:44:12.393Z,75.43
2022-10-09T01:45:12.396Z,75.91
2022-10-09T01:46:12.410Z,75.67
2022-10-09T01:47:12.393Z,75.59
2022-10-09T01:48:12.403Z,75.44
2022-10-09T01:49:12.393Z,75.35
2022-10-09T01:50:12.389Z,75.29
2022-10-09T01:51:12.389Z,75.36
2022-10-09T01:52:12.394Z,75.34
2022-10-09T01:53:12.400Z,75.71
2022-10-09T01:54:12.409Z,75.75
2022-10-09T01:55:12.390Z,75.45
2022-10-09T01:56:12.396Z,75.6
2022-10-09T01:57:12.397Z,75.6
2022-10-09T01:58:12.400Z,76.19
2022-10-09T01:59:15.644Z,76.56
2022-10-09T02:00:12.388Z,76.56
2022-10-09T02:01:12.452Z,76.47
2022-10-09T02:02:12.593Z,68.74
2022-10-09T02:03:12.390Z,76.17
2022-10-09T02:04:12.400Z,75.88
2022-10-09T02:05:12.403Z,75.91
2022-10-09T02:06:12.403Z,76.23
2022-10-09T02:07:12.386Z,76.25
2022-10-09T02:08:12.401Z,76.43
2022-10-09T02:09:12.408Z,76.36
2022-10-09T02:10:12.395Z,76.55
2022-10-09T02:11:12.389Z,76.55
2022-10-09T02:12:12.384Z,76.55
2022-10-09T02:13:12.400Z,76.51
2022-10-09T02:14:12.387Z,76.01
2022-10-09T02:15:12.384Z,76.02
2022-10-09T02:16:12.501Z,75.95
2022-10-09T02:17:12.391Z,76.51
2022-10-09T02:18:12.388Z,76.41
2022-10-09T02:19:12.379Z,76.34
2022-10-09T02:20:12.388Z,76.06
2022-10-09T02:21:12.389Z,76.01
2022-10-09T02:22:12.385Z,75.72
2022-10-09T02:23:12.390Z,76.18
2022-10-09T02:24:12.395Z,75.96
2022-10-09T02:25:12.385Z,76.06
2022-10-09T02:26:12.385Z,75.97
2022-10-09T02:27:12.384Z,75.85
2022-10-09T02:28:12.479Z,75.85
2022-10-09T02:29:12.387Z,75.94
2022-10-09T02:30:12.395Z,76.52
2022-10-09T02:31:12.454Z,76.8
2022-10-09T02:32:12.391Z,76.32
2022-10-09T02:33:12.408Z,76.26
2022-10-09T02:34:12.392Z,76.22
2022-10-09T02:35:12.390Z,76.33
2022-10-09T02:36:12.393Z,75.71
2022-10-09T02:37:12.391Z,75.14
2022-10-09T02:38:12.396Z,75.39
2022-10-09T02:39:12.403Z,75.72
2022-10-09T02:40:12.404Z,76.06
2022-10-09T02:41:12.400Z,76.03
2022-10-09T02:42:12.395Z,76.16
2022-10-09T02:43:12.397Z,76.51
2022-10-09T02:44:12.430Z,76.57
2022-10-09T02:45:12.392Z,77.1
2022-10-09T02:46:12.445Z,78.33
2022-10-09T02:47:12.396Z,78.17
2022-10-09T02:48:12.401Z,78.49
2022-10-09T02:49:12.396Z,78.56
2022-10-09T02:50:12.396Z,79.06
2022-10-09T02:51:12.389Z,79.03
2022-10-09T02:52:12.399Z,78.11
2022-10-09T02:53:12.399Z,77.85
2022-10-09T02:54:12.410Z,77.13
2022-10-09T02:55:12.402Z,76.55
2022-10-09T02:56:12.394Z,75.6
2022-10-09T02:57:12.405Z,75.36
2022-10-09T03:01:12.410Z,75.7
2022-10-09T03:02:12.465Z,76.21
2022-10-09T03:03:12.430Z,76.25
2022-10-09T03:04:12.392Z,75.85
2022-10-09T03:05:12.399Z,75.81
2022-10-09T03:06:12.395Z,75.99
2022-10-09T03:07:12.401Z,75.93
2022-10-09T03:08:12.399Z,75.9
2022-10-09T03:09:12.424Z,76.06
2022-10-09T03:10:12.403Z,76.55
2022-10-09T03:11:12.395Z,76
2022-10-09T03:12:12.406Z,75.95
2022-10-09T03:13:12.403Z,76.13
2022-10-09T03:14:12.407Z,76.09
2022-10-09T03:15:12.399Z,76.01
2022-10-09T03:16:12.489Z,75.91
2022-10-09T03:17:12.401Z,75.81
2022-10-09T03:18:12.410Z,76.31
2022-10-09T03:19:12.403Z,76.36
2022-10-09T03:20:12.394Z,76.33
2022-10-09T03:21:12.405Z,76.5
2022-10-09T03:22:12.404Z,76.5
2022-10-09T03:23:12.401Z,76.36
2022-10-09T03:24:12.413Z,76.82
2022-10-09T03:25:12.399Z,76.59
2022-10-09T03:26:12.393Z,76.48
2022-10-09T03:27:12.388Z,76.61
2022-10-09T03:28:12.463Z,76.47
2022-10-09T03:29:12.386Z,76.31
2022-10-09T03:30:12.407Z,76.42
2022-10-09T03:31:22.533Z,76.42
2022-10-09T03:32:12.447Z,76.96
2022-10-09T03:33:12.396Z,76.59
2022-10-09T03:34:12.389Z,76.81
2022-10-09T03:35:12.390Z,77.09
2022-10-09T03:36:12.390Z,77.65
2022-10-09T03:37:12.383Z,77.32
2022-10-09T03:38:12.400Z,77.25
2022-10-09T03:39:12.402Z,77.35
2022-10-09T03:40:12.390Z,77.3
2022-10-09T03:41:12.390Z,77.5
2022-10-09T03:42:12.400Z,77.71
2022-10-09T03:43:12.406Z,77.77
2022-10-09T03:44:12.398Z,77.79
2022-10-09T03:45:12.392Z,76.98
2022-10-09T03:46:12.449Z,77.18
2022-10-09T03:47:12.394Z,77.62
2022-10-09T03:48:12.405Z,78.3
2022-10-09T03:49:12.391Z,78.49
2022-10-09T03:50:12.391Z,78.88
2022-10-09T03:51:12.389Z,78.08
2022-10-09T03:52:12.464Z,78.06
2022-10-09T03:53:12.399Z,77.92
2022-10-09T03:54:12.410Z,77.33
2022-10-09T03:55:12.405Z,77.44
2022-10-09T03:56:12.396Z,78.02
2022-10-09T03:57:12.398Z,78.4
2022-10-09T03:58:12.488Z,78.42
2022-10-09T03:59:12.385Z,78.87
2022-10-09T04:00:12.403Z,78.33
2022-10-09T04:01:12.443Z,78.28
2022-10-09T04:02:12.454Z,77.7
2022-10-09T04:03:12.406Z,78.14
2022-10-09T04:04:12.398Z,78.01
2022-10-09T04:05:12.395Z,77.73
2022-10-09T04:06:12.388Z,77.97
2022-10-09T04:07:12.402Z,78.19
2022-10-09T04:08:12.404Z,78.35
2022-10-09T04:09:12.412Z,78.35
2022-10-09T04:10:12.396Z,79.26
2022-10-09T04:11:12.400Z,78.68
2022-10-09T04:12:12.399Z,78.6
2022-10-09T04:13:12.398Z,78.6
2022-10-09T04:14:12.393Z,78.55
2022-10-09T04:15:12.394Z,79.02
2022-10-09T04:16:12.472Z,78.93
2022-10-09T04:17:12.394Z,78.91
2022-10-09T04:18:12.408Z,78.67
2022-10-09T04:19:12.397Z,78.49
2022-10-09T04:20:12.399Z,78.57
2022-10-09T04:21:12.398Z,78.65
2022-10-09T04:22:12.402Z,78.67
2022-10-09T04:23:12.405Z,78.65
2022-10-09T04:24:12.405Z,79.04
2022-10-09T04:25:12.397Z,79.16
2022-10-09T04:26:12.401Z,0
2022-10-09T04:27:12.399Z,79.52
2022-10-09T04:28:12.433Z,79.82
2022-10-09T04:29:12.397Z,79.79
2022-10-09T04:30:12.385Z,79.79
2022-10-09T04:31:12.433Z,79.46
2022-10-09T04:32:12.397Z,79.09
2022-10-09T04:33:13.177Z,78.91
2022-10-09T04:34:12.396Z,78.76
2022-10-09T04:35:12.390Z,78.69
2022-10-09T04:36:12.391Z,78.46
2022-10-09T04:37:12.394Z,78.59
2022-10-09T04:38:12.414Z,78.25
2022-10-09T04:39:12.423Z,78.21
2022-10-09T04:40:12.390Z,78.21
2022-10-09T04:41:12.458Z,78.52
2022-10-09T04:42:12.391Z,78.52
2022-10-09T04:43:12.391Z,78.25
2022-10-09T04:44:12.405Z,78.27
2022-10-09T04:45:12.392Z,78.33
2022-10-09T04:46:12.503Z,78.26
2022-10-09T04:47:12.479Z,77.93
2022-10-09T04:48:12.399Z,77.6
2022-10-09T04:49:12.387Z,77.66
2022-10-09T04:50:12.390Z,77.96
2022-10-09T04:51:12.384Z,77.89
2022-10-09T04:52:12.382Z,77.91
2022-10-09T04:53:12.397Z,77.95
2022-10-09T04:54:12.414Z,78.06
2022-10-09T04:55:12.385Z,77.99
2022-10-09T04:56:12.418Z,77.73
2022-10-09T04:57:12.396Z,62.23
2022-10-09T04:58:12.412Z,78.28
2022-10-09T04:59:12.385Z,78.28
2022-10-09T05:00:12.391Z,78.08
2022-10-09T05:01:12.481Z,78.05
2022-10-09T05:02:12.428Z,77.83
2022-10-09T05:03:12.407Z,77.82
2022-10-09T05:04:12.399Z,77.64
2022-10-09T05:05:12.406Z,77.54
2022-10-09T05:06:12.394Z,77.76
2022-10-09T05:07:12.398Z,78
2022-10-09T05:08:12.406Z,78.18
2022-10-09T05:09:12.410Z,78.28
2022-10-09T05:10:12.469Z,78.59
2022-10-09T05:11:12.401Z,78.33
2022-10-09T05:12:12.401Z,77.95
2022-10-09T05:13:12.415Z,78.04
2022-10-09T05:14:12.404Z,78
2022-10-09T05:15:12.391Z,78.01
2022-10-09T05:16:12.476Z,78.27
2022-10-09T05:17:14.496Z,77.8
2022-10-09T05:18:12.468Z,77.75
2022-10-09T05:19:12.398Z,77.75
2022-10-09T05:20:12.395Z,78.06
2022-10-09T05:21:12.397Z,77.31
2022-10-09T05:22:12.401Z,77.52
2022-10-09T05:23:12.409Z,78
2022-10-09T05:24:12.409Z,77.8
2022-10-09T05:25:12.400Z,77.6
2022-10-09T05:26:12.395Z,77.78
2022-10-09T05:27:12.396Z,78
2022-10-09T05:28:12.456Z,77.52
2022-10-09T05:29:12.399Z,77.47
2022-10-09T05:30:12.396Z,77.18
2022-10-09T05:31:12.512Z,77.13
2022-10-09T05:32:12.465Z,77.09
2022-10-09T05:33:12.413Z,76.9
2022-10-09T05:34:12.400Z,76.68
2022-10-09T05:35:12.397Z,76.68
2022-10-09T05:36:12.398Z,76.99
2022-10-09T05:37:12.398Z,76.7
2022-10-09T05:38:12.409Z,76.51
2022-10-09T05:39:12.406Z,76.6
2022-10-09T05:40:12.391Z,76.6
2022-10-09T05:41:12.400Z,76.8
2022-10-09T05:42:12.393Z,77.05
2022-10-09T05:43:12.410Z,76.77
2022-10-09T05:44:12.406Z,76.85
2022-10-09T05:45:12.393Z,76.7
2022-10-09T05:46:12.484Z,76.65
2022-10-09T05:47:12.388Z,76.77
2022-10-09T05:48:12.405Z,76.68
2022-10-09T05:49:12.395Z,76.51
2022-10-09T05:50:12.400Z,76.51
2022-10-09T05:51:12.400Z,76.4
2022-10-09T05:52:12.386Z,76.4
2022-10-09T05:53:12.401Z,69.23
2022-10-09T05:54:12.410Z,76.79
2022-10-09T05:55:12.399Z,76.61
2022-10-09T05:56:12.384Z,76.15
2022-10-09T05:57:12.385Z,75.64
2022-10-09T05:58:12.408Z,75.63
2022-10-09T05:59:12.392Z,75.76
2022-10-09T06:00:12.398Z,75.45
2022-10-09T06:01:12.544Z,75.64
2022-10-09T06:02:12.440Z,75.63
2022-10-09T06:03:12.395Z,75.22
2022-10-09T06:04:12.386Z,74.9
2022-10-09T06:05:12.387Z,74.43
2022-10-09T06:06:12.395Z,75
2022-10-09T06:07:12.400Z,75.22
2022-10-09T06:08:12.409Z,75.05
2022-10-09T06:09:12.401Z,75.29
2022-10-09T06:10:12.401Z,60.31
2022-10-09T06:11:12.403Z,76.07
2022-10-09T06:12:12.403Z,76.76
2022-10-09T06:13:12.408Z,76.71
2022-10-09T06:14:12.424Z,77.1
2022-10-09T06:15:12.397Z,77.1
2022-10-09T06:16:12.454Z,77.17
2022-10-09T06:17:12.405Z,77.1
2022-10-09T06:18:12.399Z,77.5
2022-10-09T06:19:12.404Z,77.93
2022-10-09T06:20:12.392Z,78.96
2022-10-09T06:21:12.392Z,78.55
2022-10-09T06:22:12.398Z,77.6
2022-10-09T06:23:12.411Z,77.79
2022-10-09T06:24:12.410Z,76.98
2022-10-09T06:25:12.401Z,76.22
2022-10-09T06:26:12.396Z,75.45
2022-10-09T06:27:12.401Z,75.45
2022-10-09T06:28:12.518Z,75.38
2022-10-09T06:29:12.408Z,75.51
2022-10-09T06:30:12.393Z,75.79
2022-10-09T06:31:12.481Z,76.16
2022-10-09T06:32:12.405Z,76.67
2022-10-09T06:33:12.413Z,77.21
2022-10-09T06:34:12.409Z,77.14
2022-10-09T06:35:12.397Z,77.71
2022-10-09T06:36:12.394Z,77.55
2022-10-09T06:37:12.400Z,76.75
2022-10-09T06:38:12.436Z,76.34
2022-10-09T06:39:12.415Z,76.24
2022-10-09T06:40:12.402Z,76.5
2022-10-09T06:41:12.428Z,77.1
2022-10-09T06:42:12.398Z,77.1
2022-10-09T06:43:12.401Z,76.92
2022-10-09T06:44:16.293Z,76.58
2022-10-09T06:45:12.396Z,76.55
2022-10-09T06:46:12.475Z,76.53
2022-10-09T06:47:12.399Z,76.76
2022-10-09T06:48:12.406Z,76.97
2022-10-09T06:49:12.405Z,76.71
2022-10-09T06:50:12.480Z,76.25
2022-10-09T06:51:12.397Z,76.79
2022-10-09T06:52:12.395Z,76.94
2022-10-09T06:53:12.450Z,76.84
2022-10-09T06:54:12.416Z,76.93
2022-10-09T06:55:12.398Z,77.05
2022-10-09T06:56:12.395Z,76.71
2022-10-09T06:57:12.389Z,76.71
2022-10-09T06:58:12.412Z,75.03
2022-10-09T06:59:12.419Z,74.47
2022-10-09T07:00:12.398Z,74.47
2022-10-09T07:01:12.497Z,67.03
2022-10-09T07:02:12.455Z,67.03
2022-10-09T07:03:12.479Z,73.53
2022-10-09T07:04:12.393Z,73.53
2022-10-09T07:05:12.399Z,59.08
2022-10-09T07:06:12.387Z,59.08
2022-10-09T07:07:12.396Z,73.52
2022-10-09T07:08:12.397Z,73.52
2022-10-09T07:09:12.407Z,73.43
2022-10-09T07:10:12.398Z,73.54
2022-10-09T07:11:12.390Z,73.8
2022-10-09T07:12:12.387Z,73.44
2022-10-09T07:13:12.397Z,73.11
2022-10-09T07:14:12.391Z,73.44
2022-10-09T07:15:12.383Z,73.25
2022-10-09T07:16:12.465Z,72.91
2022-10-09T07:17:12.389Z,72.91
2022-10-09T07:18:12.393Z,72.65
2022-10-09T07:19:12.399Z,72.64
2022-10-09T07:20:12.394Z,73.46
2022-10-09T07:21:12.388Z,73.46
2022-10-09T07:22:12.406Z,72.7
2022-10-09T07:23:12.396Z,72.34
2022-10-09T07:24:12.412Z,72.22
2022-10-09T07:25:12.386Z,72.22
2022-10-09T07:26:12.382Z,72.45
2022-10-09T07:27:12.396Z,72.76
2022-10-09T07:28:12.457Z,72.67
2022-10-09T07:29:12.390Z,72.58
2022-10-09T07:30:12.388Z,72.58
2022-10-09T07:31:12.515Z,73.04
2022-10-09T07:32:12.397Z,72.88
2022-10-09T07:33:12.397Z,72.96
2022-10-09T07:34:12.388Z,73.2
2022-10-09T07:35:12.398Z,73.08
2022-10-09T07:36:12.397Z,73.08
2022-10-09T07:37:12.394Z,73.08
2022-10-09T07:38:12.405Z,73.35
2022-10-09T07:39:12.428Z,73.25
2022-10-09T07:40:12.478Z,73.25
2022-10-09T07:41:12.399Z,73.38
2022-10-09T07:42:12.401Z,73.54
2022-10-09T07:43:12.402Z,73.59
2022-10-09T07:44:12.391Z,73.59
2022-10-09T07:45:12.392Z,73.59
2022-10-09T07:46:12.439Z,73.59
2022-10-09T07:47:12.389Z,73.75
2022-10-09T07:48:12.406Z,73.38
2022-10-09T07:49:12.411Z,73.51
2022-10-09T07:50:12.394Z,73.51
2022-10-09T07:51:12.404Z,73.02
2022-10-09T07:52:12.383Z,72.93
2022-10-09T07:53:12.400Z,73.16
2022-10-09T07:54:12.410Z,73.16
2022-10-09T07:55:12.386Z,73.3
2022-10-09T07:56:12.391Z,73.3
2022-10-09T07:57:12.402Z,73.59
2022-10-09T07:58:12.397Z,73.59
2022-10-09T07:59:12.404Z,73.59
2022-10-09T08:00:12.395Z,73.68
2022-10-09T08:01:16.115Z,73.81
2022-10-09T08:02:12.418Z,73.81
2022-10-09T08:03:12.407Z,73.38
2022-10-09T08:04:12.397Z,73.6
2022-10-09T08:05:12.414Z,73.62
2022-10-09T08:06:12.391Z,73.87
2022-10-09T08:07:12.397Z,73.74
2022-10-09T08:08:13.089Z,73.72
2022-10-09T08:09:12.404Z,73.72
2022-10-09T08:10:12.893Z,73.36
2022-10-09T08:11:12.390Z,74.07
2022-10-09T08:12:12.400Z,74.19
2022-10-09T08:13:12.409Z,73.65
2022-10-09T08:14:18.047Z,73.33
2022-10-09T08:15:12.392Z,72.72
2022-10-09T08:16:12.489Z,73.18
2022-10-09T08:17:12.436Z,72.81
2022-10-09T08:18:12.491Z,73.05
2022-10-09T08:19:12.395Z,72.68
2022-10-09T08:20:12.394Z,72.68
2022-10-09T08:21:12.392Z,72.15
2022-10-09T08:22:12.388Z,71.89
2022-10-09T08:23:12.393Z,71.67
2022-10-09T08:24:12.400Z,57.9
2022-10-09T08:25:12.384Z,72.03
2022-10-09T08:26:12.388Z,71.75
2022-10-09T08:27:12.406Z,71.52
2022-10-09T08:28:12.437Z,71.78
2022-10-09T08:29:12.401Z,71.78
2022-10-09T08:30:12.386Z,71.35
2022-10-09T08:31:12.493Z,71.3
2022-10-09T08:32:12.388Z,71.53
2022-10-09T08:33:12.404Z,71.5
2022-10-09T08:34:12.403Z,71.11
2022-10-09T08:35:12.385Z,70.52
2022-10-09T08:36:12.385Z,70.21
2022-10-09T08:37:12.383Z,70.11
2022-10-09T08:38:25.577Z,69.94
2022-10-09T08:39:12.421Z,69.62
2022-10-09T08:40:12.401Z,56.37
2022-10-09T08:41:12.388Z,69.1
2022-10-09T08:42:12.396Z,69.16
2022-10-09T08:43:12.405Z,69.12
2022-10-09T08:44:12.398Z,68.93
2022-10-09T08:45:12.400Z,68.99
2022-10-09T08:46:12.419Z,68.93
2022-10-09T08:47:12.394Z,68.81
2022-10-09T08:48:12.414Z,68.99
2022-10-09T08:49:12.397Z,68.62
2022-10-09T08:50:12.395Z,68.55
2022-10-09T08:51:12.456Z,68.33
2022-10-09T08:52:12.391Z,67.68
2022-10-09T08:53:12.405Z,67.52
2022-10-09T08:54:12.420Z,67.44
2022-10-09T08:55:12.398Z,67.84
2022-10-09T08:56:12.394Z,68.35
2022-10-09T08:57:12.391Z,55.68
2022-10-09T08:58:12.413Z,68.45
2022-10-09T08:59:12.406Z,68.36
2022-10-09T09:00:12.396Z,68.21
2022-10-09T09:01:12.464Z,68.21
2022-10-09T09:02:12.394Z,68.25
2022-10-09T09:03:12.423Z,68.21
2022-10-09T09:04:12.387Z,68.04
2022-10-09T09:05:12.400Z,67.85
2022-10-09T09:06:12.394Z,67.39
2022-10-09T09:07:12.396Z,67.03
2022-10-09T09:08:12.400Z,66.71
2022-10-09T09:09:12.409Z,66.71
2022-10-09T09:10:12.401Z,66.71
2022-10-09T09:11:12.396Z,66.2
2022-10-09T09:12:12.391Z,66.27
2022-10-09T09:13:12.409Z,66.42
2022-10-09T09:14:12.413Z,66.46
2022-10-09T09:15:12.394Z,54.55
2022-10-09T09:16:12.433Z,67.09
2022-10-09T09:17:12.407Z,67.09
2022-10-09T09:18:12.413Z,67.09
2022-10-09T09:19:12.393Z,67.09
2022-10-09T09:20:12.384Z,67.09
2022-10-09T09:21:12.396Z,69.87
2022-10-09T09:22:12.396Z,70.53
2022-10-09T09:23:12.393Z,70.25
2022-10-09T09:24:12.403Z,70.05
2022-10-09T09:25:12.396Z,69.42
2022-10-09T09:26:12.392Z,69.42
2022-10-09T09:27:12.398Z,68.35
2022-10-09T09:28:12.709Z,68.15
2022-10-09T09:29:12.392Z,67.88
2022-10-09T09:30:12.452Z,67.88
2022-10-09T09:31:12.472Z,67.23
2022-10-09T09:32:12.393Z,67.37
2022-10-09T09:33:12.404Z,67.82
2022-10-09T09:34:12.398Z,67.67
2022-10-09T09:35:12.400Z,67.78
2022-10-09T09:36:12.386Z,67.78
2022-10-09T09:37:12.399Z,67.83
2022-10-09T09:38:12.398Z,67.12
2022-10-09T09:39:55.685Z,66.72
2022-10-09T09:40:37.193Z,67.07
2022-10-09T09:41:12.388Z,66.62
2022-10-09T09:42:12.384Z,66.15
2022-10-09T09:43:12.461Z,66.03
2022-10-09T09:44:12.385Z,65.84
2022-10-09T09:45:12.390Z,66.1
2022-10-09T09:46:12.430Z,66.1
2022-10-09T09:47:12.394Z,66.1
2022-10-09T09:48:12.393Z,65.59
2022-10-09T09:49:12.383Z,65.3
2022-10-09T09:50:34.927Z,65.05
2022-10-09T09:51:27.286Z,64.6
2022-10-09T09:52:12.390Z,64.23
2022-10-09T09:53:12.398Z,68.12
2022-10-09T09:54:12.413Z,64.16
2022-10-09T09:55:12.407Z,64.98
2022-10-09T09:56:12.401Z,65.47
2022-10-09T09:57:17.113Z,64.62
2022-10-09T09:58:12.402Z,64.21
2022-10-09T09:59:12.413Z,64.34
2022-10-09T10:00:12.416Z,64.74
2022-10-09T10:01:12.517Z,64.74
2022-10-09T10:02:12.498Z,64.42
2022-10-09T10:03:12.404Z,63.72
2022-10-09T10:04:12.393Z,63.33
2022-10-09T10:05:12.395Z,64.2
2022-10-09T10:06:12.397Z,63.84
2022-10-09T10:07:12.393Z,63.77
2022-10-09T10:08:12.402Z,63.6
2022-10-09T10:09:12.412Z,63.6
2022-10-09T10:10:12.406Z,64.19
2022-10-09T10:11:12.403Z,63.64
2022-10-09T10:12:12.397Z,63.4
2022-10-09T10:13:12.400Z,63.5
2022-10-09T10:14:12.392Z,63.07
2022-10-09T10:15:12.395Z,63.07
2022-10-09T10:16:12.462Z,60.97
2022-10-09T10:17:16.340Z,61.81
2022-10-09T10:18:12.411Z,61.99
2022-10-09T10:19:12.406Z,61.68
2022-10-09T10:20:12.412Z,61.62
2022-10-09T10:21:12.424Z,62.03
2022-10-09T10:22:12.401Z,62.43
2022-10-09T10:23:12.407Z,62.3
2022-10-09T10:24:12.409Z,62.3
2022-10-09T10:25:14.020Z,62.93
2022-10-09T10:26:12.398Z,62.39
2022-10-09T10:27:12.400Z,62.16
2022-10-09T10:28:12.457Z,62.5
2022-10-09T10:29:12.400Z,62.89
2022-10-09T10:30:12.387Z,62.12
2022-10-09T10:31:12.410Z,61.61
2022-10-09T10:32:12.398Z,61.73
2022-10-09T10:33:12.409Z,61.14
2022-10-09T10:34:12.389Z,60.66
2022-10-09T10:35:12.395Z,60.41
2022-10-09T10:36:12.400Z,60.41
2022-10-09T10:37:12.397Z,59.85
2022-10-09T10:38:12.406Z,60.15
2022-10-09T10:39:12.413Z,61.62
2022-10-09T10:40:12.393Z,61.91
2022-10-09T10:41:12.396Z,61.96
2022-10-09T10:42:12.399Z,61.82
2022-10-09T10:43:12.404Z,61.74
2022-10-09T10:44:12.387Z,55.93
2022-10-09T10:45:12.403Z,61.65
2022-10-09T10:46:12.514Z,61.35
2022-10-09T10:47:12.389Z,60.66
2022-10-09T10:48:12.405Z,60.38
2022-10-09T10:49:12.395Z,58.76
2022-10-09T10:50:12.397Z,58.43
2022-10-09T10:51:12.402Z,58.45
2022-10-09T10:52:12.397Z,59.05
2022-10-09T10:53:12.504Z,58.34
2022-10-09T10:54:12.409Z,58.07
2022-10-09T10:55:12.394Z,57.5
2022-10-09T10:56:12.495Z,57.73
2022-10-09T10:57:12.484Z,58.29
2022-10-09T10:58:12.451Z,58.14
2022-10-09T10:59:12.388Z,56.93
2022-10-09T11:00:12.405Z,56.54
2022-10-09T11:01:12.432Z,56.81
2022-10-09T11:02:12.389Z,57.56
2022-10-09T11:03:12.438Z,56.1
2022-10-09T11:04:12.384Z,56.32
2022-10-09T11:05:12.383Z,56.84
2022-10-09T11:06:12.389Z,56.33
2022-10-09T11:07:12.386Z,56.2
2022-10-09T11:08:12.393Z,55.92
2022-10-09T11:09:12.406Z,55.83
2022-10-09T11:10:12.396Z,56.24
2022-10-09T11:11:12.454Z,55.32
2022-10-09T11:12:19.612Z,55.65
2022-10-09T11:13:12.407Z,55.75
2022-10-09T11:14:15.465Z,55.65
2022-10-09T11:15:12.388Z,56.91
2022-10-09T11:16:12.429Z,56.91
2022-10-09T11:17:12.391Z,56.47
2022-10-09T11:18:12.454Z,58.81
2022-10-09T11:19:12.393Z,58.13
2022-10-09T11:20:12.389Z,57.66
2022-10-09T11:21:12.387Z,57.66
2022-10-09T11:22:12.395Z,57.58
2022-10-09T11:23:12.408Z,56.46
2022-10-09T11:24:12.410Z,56.8
2022-10-09T11:25:12.393Z,57.07
2022-10-09T11:26:12.399Z,56.8
2022-10-09T11:27:12.392Z,56.46
2022-10-09T11:28:12.442Z,56.67
2022-10-09T11:29:12.395Z,57.64
2022-10-09T11:30:12.405Z,58.28
2022-10-09T11:31:12.457Z,56.86
2022-10-09T11:32:12.399Z,58.97
2022-10-09T11:33:12.409Z,58.97
2022-10-09T11:34:12.393Z,58.1
2022-10-09T11:35:12.394Z,58.21
2022-10-09T11:36:12.395Z,57
2022-10-09T11:37:12.399Z,57.59
2022-10-09T11:38:12.408Z,57.84
2022-10-09T11:39:12.403Z,57.7
2022-10-09T11:40:12.401Z,57.55
2022-10-09T11:41:12.390Z,57.29
2022-10-09T11:42:12.396Z,56.98
2022-10-09T11:43:12.401Z,56.64
2022-10-09T11:44:12.390Z,56.64
2022-10-09T11:45:12.386Z,56.64
2022-10-09T11:46:12.426Z,56.93
2022-10-09T11:47:12.399Z,56.77
2022-10-09T11:48:12.399Z,55.73
2022-10-09T11:49:12.397Z,55.67
2022-10-09T11:50:12.390Z,55.72
2022-10-09T11:51:12.384Z,56.11
2022-10-09T11:52:12.391Z,55.27
2022-10-09T11:53:12.407Z,55.31
2022-10-09T11:54:12.417Z,55.14
2022-10-09T11:55:12.396Z,55.17
2022-10-09T11:56:12.394Z,55.17
2022-10-09T11:57:15.293Z,56.06
2022-10-09T11:58:12.398Z,55.95
2022-10-09T11:59:12.391Z,54.74
2022-10-09T12:00:12.391Z,54.94
2022-10-09T12:01:12.436Z,55.62
2022-10-09T12:02:12.425Z,55.87
2022-10-09T12:03:12.404Z,55.87
2022-10-09T12:04:12.428Z,55.54
2022-10-09T12:05:12.393Z,55.77
2022-10-09T12:06:12.394Z,55.91
2022-10-09T12:07:12.395Z,55.37
2022-10-09T12:08:15.393Z,54.56
2022-10-09T12:09:12.413Z,54.43
2022-10-09T12:10:12.405Z,55.46
2022-10-09T12:11:12.398Z,55.16
2022-10-09T12:12:12.399Z,55.26
2022-10-09T12:13:12.423Z,55.79
2022-10-09T12:14:13.177Z,54.97
2022-10-09T12:15:12.389Z,54.89
2022-10-09T12:16:12.438Z,54.05
2022-10-09T12:17:12.387Z,54.62
2022-10-09T12:18:12.395Z,54.29
2022-10-09T12:19:12.389Z,54.57
2022-10-09T12:20:12.396Z,53
2022-10-09T12:21:12.392Z,53.19
2022-10-09T12:22:12.388Z,54.49
2022-10-09T12:23:26.392Z,54.69
2022-10-09T12:24:12.403Z,54.9
2022-10-09T12:25:12.388Z,54.12
2022-10-09T12:26:12.393Z,54.01
2022-10-09T12:27:12.382Z,53.07
2022-10-09T12:28:12.452Z,52.8
2022-10-09T12:29:12.387Z,53.07
2022-10-09T12:30:12.394Z,53.08
2022-10-09T12:31:12.504Z,52.36
2022-10-09T12:32:12.390Z,52.81
2022-10-09T12:33:12.396Z,52.85
2022-10-09T12:34:12.396Z,53.13
2022-10-09T12:35:12.397Z,52.97
2022-10-09T12:36:12.392Z,53.85
2022-10-09T12:37:12.391Z,52.78
2022-10-09T12:38:12.405Z,52.78
2022-10-09T12:39:12.413Z,53.42
2022-10-09T12:40:12.395Z,53.54
2022-10-09T12:41:15.601Z,54.21
2022-10-09T12:42:12.401Z,53.96
2022-10-09T12:43:12.397Z,53.43
2022-10-09T12:44:12.404Z,52.22
2022-10-09T12:45:12.396Z,52.95
2022-10-09T12:46:12.478Z,53.44
2022-10-09T12:47:12.474Z,53.89
2022-10-09T12:48:12.412Z,53.25
2022-10-09T12:49:12.402Z,52.72
2022-10-09T12:50:12.537Z,52.34
2022-10-09T12:51:12.406Z,52.14
2022-10-09T12:52:12.486Z,52.44
2022-10-09T12:53:12.402Z,53.3
2022-10-09T12:54:12.416Z,53.3
2022-10-09T12:55:12.397Z,53.74
2022-10-09T12:56:12.392Z,53.74
2022-10-09T12:57:12.391Z,53.67
2022-10-09T12:58:12.404Z,53.22
2022-10-09T12:59:12.405Z,53.22